createdAt,value
2022-09-09T00:00:08.084Z,9.278365
2022-09-09T00:01:08.033Z,9.278436
2022-09-09T00:02:08.236Z,9.278430
2022-09-09T00:03:08.156Z,9.278384
2022-09-09T00:04:07.978Z,9.278380
2022-09-09T00:05:08.008Z,9.278383
2022-09-09T00:06:07.946Z,9.278391
2022-09-09T00:07:07.948Z,9.278403
2022-09-09T00:08:07.928Z,9.278437
2022-09-09T00:09:07.906Z,9.278408
2022-09-09T00:10:07.915Z,9.278295
2022-09-09T00:11:07.866Z,9.278230
2022-09-09T00:12:07.854Z,9.278345
2022-09-09T00:13:07.828Z,9.278335
2022-09-09T00:14:07.827Z,9.278292
2022-09-09T00:15:07.830Z,9.278185
2022-09-09T00:16:07.845Z,9.278252
2022-09-09T00:17:07.757Z,9.278299
2022-09-09T00:18:07.756Z,9.278421
2022-09-09T00:19:07.761Z,9.278399
2022-09-09T00:20:07.756Z,9.278344
2022-09-09T00:21:07.719Z,9.278311
2022-09-09T00:22:07.681Z,9.278326
2022-09-09T00:23:07.663Z,9.278246
2022-09-09T00:24:08.664Z,9.278201
2022-09-09T00:25:07.664Z,9.278234
2022-09-09T00:26:07.645Z,9.278313
2022-09-09T00:27:07.616Z,9.278315
2022-09-09T00:28:07.578Z,9.278332
2022-09-09T00:29:07.574Z,9.278364
2022-09-09T00:30:07.584Z,9.278246
2022-09-09T00:31:07.559Z,9.278273
2022-09-09T00:32:07.548Z,9.278422
2022-09-09T00:33:10.890Z,9.278358
2022-09-09T00:34:08.503Z,9.278301
2022-09-09T00:35:07.507Z,9.278394
2022-09-09T00:36:07.460Z,9.278395
2022-09-09T00:37:07.438Z,9.278311
2022-09-09T00:38:07.423Z,9.278358
2022-09-09T00:39:07.401Z,9.278331
2022-09-09T00:40:07.479Z,9.278424
2022-09-09T00:41:07.375Z,9.278309
2022-09-09T00:42:07.352Z,9.278398
2022-09-09T00:43:07.417Z,9.278326
2022-09-09T00:44:07.338Z,9.278317
2022-09-09T00:45:07.331Z,9.278351
2022-09-09T00:46:07.350Z,9.278414
2022-09-09T00:47:07.280Z,9.278426
2022-09-09T00:48:07.270Z,9.278404
2022-09-09T00:49:07.243Z,9.278358
2022-09-09T00:50:07.330Z,9.278320
2022-09-09T00:51:07.308Z,9.278313
2022-09-09T00:52:07.183Z,9.278294
2022-09-09T00:53:07.177Z,9.278381
2022-09-09T00:54:07.151Z,9.278460
2022-09-09T00:55:07.184Z,9.278353
2022-09-09T00:56:07.149Z,9.278285
2022-09-09T00:57:07.120Z,9.278345
2022-09-09T00:58:07.104Z,9.278457
2022-09-09T00:59:07.070Z,9.278386
2022-09-09T01:00:07.097Z,9.278495
2022-09-09T01:01:07.151Z,9.278458
2022-09-09T01:02:07.047Z,9.278493
2022-09-09T01:03:08.009Z,9.278351
2022-09-09T01:04:07.006Z,9.278498
2022-09-09T01:05:07.019Z,9.278404
2022-09-09T01:06:06.947Z,9.278429
2022-09-09T01:07:07.946Z,9.278412
2022-09-09T01:08:06.958Z,9.278494
2022-09-09T01:09:06.915Z,9.278507
2022-09-09T01:10:06.941Z,9.278419
2022-09-09T01:11:06.885Z,9.278374
2022-09-09T01:12:06.855Z,9.278253
2022-09-09T01:13:06.855Z,9.278253
2022-09-09T01:14:06.825Z,9.278329
2022-09-09T01:15:06.833Z,9.278295
2022-09-09T01:16:06.786Z,9.278304
2022-09-09T01:17:06.791Z,9.278295
2022-09-09T01:18:06.802Z,9.278388
2022-09-09T01:19:06.752Z,9.278407
2022-09-09T01:20:06.746Z,9.278452
2022-09-09T01:21:06.748Z,9.278429
2022-09-09T01:22:06.705Z,9.278460
2022-09-09T01:23:06.674Z,9.278360
2022-09-09T01:24:06.686Z,9.278354
2022-09-09T01:25:06.721Z,9.278246
2022-09-09T01:26:06.649Z,9.278409
2022-09-09T01:27:06.625Z,9.278478
2022-09-09T01:28:06.593Z,9.278402
2022-09-09T01:29:06.588Z,9.278370
2022-09-09T01:30:06.558Z,9.278500
2022-09-09T01:31:06.601Z,9.278252
2022-09-09T01:32:06.524Z,9.278387
2022-09-09T01:33:06.521Z,9.278276
2022-09-09T01:34:06.486Z,9.278391
2022-09-09T01:35:06.496Z,9.278320
2022-09-09T01:36:06.491Z,9.278349
2022-09-09T01:37:06.454Z,9.278324
2022-09-09T01:38:06.417Z,9.278329
2022-09-09T01:39:06.406Z,9.278291
2022-09-09T01:40:06.446Z,9.278289
2022-09-09T01:41:06.402Z,9.278295
2022-09-09T01:42:06.355Z,9.278297
2022-09-09T01:43:06.346Z,9.278372
2022-09-09T01:44:06.344Z,9.278314
2022-09-09T01:45:06.302Z,9.278296
2022-09-09T01:46:06.373Z,9.278307
2022-09-09T01:47:06.270Z,9.278365
2022-09-09T01:48:06.267Z,9.278267
2022-09-09T01:49:06.248Z,9.278339
2022-09-09T01:50:06.231Z,9.278361
2022-09-09T01:51:06.241Z,9.278246
2022-09-09T01:52:06.194Z,9.278319
2022-09-09T01:53:06.173Z,9.278326
2022-09-09T01:54:06.157Z,9.278354
2022-09-09T01:55:06.153Z,9.278365
2022-09-09T01:56:06.167Z,9.278337
2022-09-09T01:57:06.097Z,9.278442
2022-09-09T01:58:07.100Z,9.278414
2022-09-09T01:59:06.086Z,9.278403
2022-09-09T02:00:06.067Z,9.278348
2022-09-09T02:01:06.157Z,9.278384
2022-09-09T02:02:06.106Z,9.278307
2022-09-09T02:03:06.015Z,9.278394
2022-09-09T02:04:05.993Z,9.278275
2022-09-09T02:05:06.002Z,9.278323
2022-09-09T02:06:05.993Z,9.278290
2022-09-09T02:07:05.945Z,9.278337
2022-09-09T02:08:05.920Z,9.278260
2022-09-09T02:09:05.921Z,9.278281
2022-09-09T02:10:05.895Z,9.278358
2022-09-09T02:11:05.921Z,9.278316
2022-09-09T02:12:05.875Z,9.278355
2022-09-09T02:13:05.843Z,9.278247
2022-09-09T02:14:05.838Z,9.278365
2022-09-09T02:15:05.814Z,9.278292
2022-09-09T02:16:05.828Z,9.278288
2022-09-09T02:17:05.861Z,9.278276
2022-09-09T02:18:05.758Z,9.278295
2022-09-09T02:19:05.759Z,9.278376
2022-09-09T02:20:05.738Z,9.278395
2022-09-09T02:21:05.786Z,9.278350
2022-09-09T02:22:05.705Z,9.278334
2022-09-09T02:23:05.757Z,9.278311
2022-09-09T02:24:05.669Z,9.278270
2022-09-09T02:25:05.666Z,9.278248
2022-09-09T02:26:05.673Z,9.278322
2022-09-09T02:27:05.616Z,9.278225
2022-09-09T02:28:05.591Z,9.278246
2022-09-09T02:29:06.571Z,9.278234
2022-09-09T02:30:05.557Z,9.278186
2022-09-09T02:31:05.631Z,9.278160
2022-09-09T02:32:05.547Z,9.278214
2022-09-09T02:33:05.507Z,9.278227
2022-09-09T02:34:05.510Z,9.278217
2022-09-09T02:35:05.473Z,9.278283
2022-09-09T02:36:05.496Z,9.278223
2022-09-09T02:37:05.442Z,9.278282
2022-09-09T02:38:05.436Z,9.278371
2022-09-09T02:39:05.407Z,9.278333
2022-09-09T02:40:05.465Z,9.278400
2022-09-09T02:41:05.408Z,9.278346
2022-09-09T02:42:05.363Z,9.278464
2022-09-09T02:43:05.337Z,9.278392
2022-09-09T02:44:05.348Z,9.278436
2022-09-09T02:45:05.305Z,9.278313
2022-09-09T02:46:05.382Z,9.278298
2022-09-09T02:47:05.296Z,9.278349
2022-09-09T02:48:05.271Z,9.278329
2022-09-09T02:49:05.254Z,9.278430
2022-09-09T02:50:05.219Z,9.278253
2022-09-09T02:51:05.246Z,9.278284
2022-09-09T02:52:05.209Z,9.278208
2022-09-09T02:53:05.177Z,9.278132
2022-09-09T02:54:06.159Z,9.278238
2022-09-09T02:55:05.145Z,9.278340
2022-09-09T02:56:05.167Z,9.278408
2022-09-09T02:57:05.113Z,9.278308
2022-09-09T02:58:05.089Z,9.278197
2022-09-09T02:59:05.074Z,9.278242
2022-09-09T03:00:05.074Z,9.278298
2022-09-09T03:01:05.114Z,9.278108
2022-09-09T03:02:05.224Z,9.278190
2022-09-09T03:03:05.000Z,9.278163
2022-09-09T03:04:04.997Z,9.278338
2022-09-09T03:05:04.974Z,9.278306
2022-09-09T03:06:04.993Z,9.278294
2022-09-09T03:07:04.929Z,9.278288
2022-09-09T03:08:04.993Z,9.278304
2022-09-09T03:09:04.902Z,9.278186
2022-09-09T03:10:04.900Z,9.278213
2022-09-09T03:11:04.925Z,9.278171
2022-09-09T03:12:04.872Z,9.278192
2022-09-09T03:13:04.843Z,9.278313
2022-09-09T03:14:04.815Z,9.278350
2022-09-09T03:15:04.863Z,9.278265
2022-09-09T03:16:04.885Z,9.278234
2022-09-09T03:17:04.791Z,9.278290
2022-09-09T03:18:04.756Z,9.278398
2022-09-09T03:19:04.757Z,9.278337
2022-09-09T03:20:04.719Z,9.278253
2022-09-09T03:21:04.727Z,9.278263
2022-09-09T03:22:04.679Z,9.278338
2022-09-09T03:23:04.676Z,9.278384
2022-09-09T03:24:04.646Z,9.278458
2022-09-09T03:25:04.651Z,9.278369
2022-09-09T03:26:04.641Z,9.278392
2022-09-09T03:27:04.602Z,9.278285
2022-09-09T03:28:04.580Z,9.278300
2022-09-09T03:29:04.560Z,9.278339
2022-09-09T03:30:04.544Z,9.278323
2022-09-09T03:31:04.585Z,9.278344
2022-09-09T03:32:04.569Z,9.278344
2022-09-09T03:33:04.498Z,9.278313
2022-09-09T03:34:04.492Z,9.278308
2022-09-09T03:35:04.474Z,9.278221
2022-09-09T03:36:04.473Z,9.278270
2022-09-09T03:37:04.423Z,9.278259
2022-09-09T03:38:04.417Z,9.278272
2022-09-09T03:39:04.407Z,9.278402
2022-09-09T03:40:04.495Z,9.278383
2022-09-09T03:41:04.393Z,9.278340
2022-09-09T03:42:04.352Z,9.278319
2022-09-09T03:43:04.321Z,9.278311
2022-09-09T03:44:04.307Z,9.278368
2022-09-09T03:45:04.290Z,9.278340
2022-09-09T03:46:04.394Z,9.278413
2022-09-09T03:47:04.271Z,9.278366
2022-09-09T03:48:04.232Z,9.278296
2022-09-09T03:49:04.243Z,9.278281
2022-09-09T03:50:04.207Z,9.278398
2022-09-09T03:51:04.221Z,9.278421
2022-09-09T03:52:04.173Z,9.278373
2022-09-09T03:53:04.167Z,9.278356
2022-09-09T03:54:04.146Z,9.278324
2022-09-09T03:55:04.134Z,9.278351
2022-09-09T03:56:04.152Z,9.278290
2022-09-09T03:57:04.105Z,9.278292
2022-09-09T03:58:04.085Z,9.278296
2022-09-09T03:59:04.066Z,9.278284
2022-09-09T04:00:04.035Z,9.278172
2022-09-09T04:01:04.114Z,9.278462
2022-09-09T04:02:04.026Z,9.278346
2022-09-09T04:03:03.990Z,9.278301
2022-09-09T04:04:04.003Z,9.278329
2022-09-09T04:05:03.969Z,9.278365
2022-09-09T04:06:03.971Z,9.278327
2022-09-09T04:07:03.951Z,9.278256
2022-09-09T04:08:03.909Z,9.278278
2022-09-09T04:09:03.897Z,9.278279
2022-09-09T04:10:03.878Z,9.278273
2022-09-09T04:11:03.850Z,9.278294
2022-09-09T04:12:03.865Z,9.278275
2022-09-09T04:13:03.846Z,9.278248
2022-09-09T04:14:03.824Z,9.278255
2022-09-09T04:15:03.784Z,9.278271
2022-09-09T04:16:03.808Z,9.278298
2022-09-09T04:17:03.791Z,9.278267
2022-09-09T04:18:03.740Z,9.278301
2022-09-09T04:19:04.719Z,9.278363
2022-09-09T04:20:03.702Z,9.278369
2022-09-09T04:21:03.699Z,9.278323
2022-09-09T04:22:03.708Z,9.278379
2022-09-09T04:23:03.761Z,9.278399
2022-09-09T04:24:03.635Z,9.278365
2022-09-09T04:25:03.638Z,9.278181
2022-09-09T04:26:03.596Z,9.278278
2022-09-09T04:27:03.646Z,9.278339
2022-09-09T04:28:03.566Z,9.278268
2022-09-09T04:29:03.550Z,9.278191
2022-09-09T04:30:03.554Z,9.278292
2022-09-09T04:31:03.521Z,9.278279
2022-09-09T04:32:03.586Z,9.278235
2022-09-09T04:33:03.494Z,9.278220
2022-09-09T04:34:03.482Z,9.278188
2022-09-09T04:35:03.458Z,9.278167
2022-09-09T04:36:03.441Z,9.278147
2022-09-09T04:37:03.455Z,9.278174
2022-09-09T04:38:03.406Z,9.278194
2022-09-09T04:39:03.381Z,9.278197
2022-09-09T04:40:03.460Z,9.278173
2022-09-09T04:41:03.378Z,9.278173
2022-09-09T04:42:03.326Z,9.278049
2022-09-09T04:43:03.318Z,9.278176
2022-09-09T04:44:03.290Z,9.278128
2022-09-09T04:45:03.273Z,9.278327
2022-09-09T04:46:03.331Z,9.278330
2022-09-09T04:47:03.264Z,9.278270
2022-09-09T04:48:03.230Z,9.278277
2022-09-09T04:49:03.221Z,9.278167
2022-09-09T04:50:03.198Z,9.278240
2022-09-09T04:51:03.221Z,9.278203
2022-09-09T04:52:03.170Z,9.278219
2022-09-09T04:53:03.154Z,9.278241
2022-09-09T04:54:03.127Z,9.278232
2022-09-09T04:55:03.113Z,9.278250
2022-09-09T04:56:03.125Z,9.278301
2022-09-09T04:57:03.083Z,9.278261
2022-09-09T04:58:03.096Z,9.278251
2022-09-09T04:59:03.045Z,9.278276
2022-09-09T05:00:03.062Z,9.278245
2022-09-09T05:01:03.074Z,9.278187
2022-09-09T05:02:03.079Z,9.278188
2022-09-09T05:03:02.977Z,9.278273
2022-09-09T05:04:02.966Z,9.278348
2022-09-09T05:05:02.949Z,9.278356
2022-09-09T05:06:02.928Z,9.278316
2022-09-09T05:07:02.942Z,9.278187
2022-09-09T05:08:02.899Z,9.278114
2022-09-09T05:09:02.912Z,9.278092
2022-09-09T05:10:02.896Z,9.278233
2022-09-09T05:11:02.848Z,9.278142
2022-09-09T05:12:02.869Z,9.278155
2022-09-09T05:13:02.832Z,9.278165
2022-09-09T05:14:02.806Z,9.278183
2022-09-09T05:15:02.785Z,9.278202
2022-09-09T05:16:02.799Z,9.278177
2022-09-09T05:17:02.774Z,9.278212
2022-09-09T05:18:02.718Z,9.278273
2022-09-09T05:19:02.712Z,9.278210
2022-09-09T05:20:05.593Z,9.278129
2022-09-09T05:21:03.705Z,9.278210
2022-09-09T05:22:02.656Z,9.278188
2022-09-09T05:23:02.639Z,9.278183
2022-09-09T05:24:02.616Z,9.278132
2022-09-09T05:25:02.609Z,9.278212
2022-09-09T05:26:02.588Z,9.278176
2022-09-09T05:27:02.615Z,9.278236
2022-09-09T05:28:02.565Z,9.278320
2022-09-09T05:29:02.546Z,9.278312
2022-09-09T05:30:02.540Z,9.278382
2022-09-09T05:31:02.558Z,9.278501
2022-09-09T05:32:02.584Z,9.278180
2022-09-09T05:33:02.477Z,9.278481
2022-09-09T05:34:02.464Z,9.278417
2022-09-09T05:35:02.476Z,9.278475
2022-09-09T05:36:02.425Z,9.278735
2022-09-09T05:37:02.440Z,9.278846
2022-09-09T05:38:02.407Z,9.278809
2022-09-09T05:39:02.415Z,9.278637
2022-09-09T05:40:02.434Z,9.278345
2022-09-09T05:41:02.359Z,9.278403
2022-09-09T05:42:02.367Z,9.278349
2022-09-09T05:43:02.319Z,9.278371
2022-09-09T05:44:02.297Z,9.278248
2022-09-09T05:45:02.295Z,9.278194
2022-09-09T05:46:02.276Z,9.278211
2022-09-09T05:47:02.363Z,9.278278
2022-09-09T05:48:02.255Z,9.278238
2022-09-09T05:49:02.203Z,9.278269
2022-09-09T05:50:02.228Z,9.278260
2022-09-09T05:51:02.200Z,9.278316
2022-09-09T05:52:02.192Z,9.278291
2022-09-09T05:53:02.142Z,9.278301
2022-09-09T05:54:02.129Z,9.278259
2022-09-09T05:55:02.110Z,9.278164
2022-09-09T05:56:02.103Z,9.278200
2022-09-09T05:57:02.119Z,9.278179
2022-09-09T05:58:03.057Z,9.278167
2022-09-09T05:59:02.045Z,9.278171
2022-09-09T06:00:02.027Z,9.278238
2022-09-09T06:01:02.018Z,9.278017
2022-09-09T06:02:02.159Z,9.278182
2022-09-09T06:03:02.177Z,9.278297
2022-09-09T06:04:01.949Z,9.278234
2022-09-09T06:05:01.934Z,9.278225
2022-09-09T06:06:01.917Z,9.278186
2022-09-09T06:07:01.952Z,9.278236
2022-09-09T06:08:01.877Z,9.278326
2022-09-09T06:09:01.875Z,9.278250
2022-09-09T06:10:01.851Z,9.278229
2022-09-09T06:11:01.846Z,9.278253
2022-09-09T06:12:01.902Z,9.278255
2022-09-09T06:13:01.813Z,9.278341
2022-09-09T06:14:01.823Z,9.278459
2022-09-09T06:15:01.770Z,9.278489
2022-09-09T06:16:01.813Z,9.278406
2022-09-09T06:17:01.764Z,9.278331
2022-09-09T06:18:01.735Z,9.278226
2022-09-09T06:19:01.709Z,9.278254
2022-09-09T06:20:01.704Z,9.278303
2022-09-09T06:21:01.664Z,9.278316
2022-09-09T06:22:02.687Z,9.278249
2022-09-09T06:23:01.641Z,9.278493
2022-09-09T06:24:01.638Z,9.278474
2022-09-09T06:25:01.611Z,9.278377
2022-09-09T06:26:01.596Z,9.278319
2022-09-09T06:27:01.623Z,9.278291
2022-09-09T06:28:01.552Z,9.278356
2022-09-09T06:29:02.589Z,9.278419
2022-09-09T06:30:01.564Z,9.278445
2022-09-09T06:31:01.584Z,9.278318
2022-09-09T06:32:01.612Z,9.278282
2022-09-09T06:33:01.488Z,9.278349
2022-09-09T06:34:01.459Z,9.278270
2022-09-09T06:35:01.521Z,9.278389
2022-09-09T06:36:01.430Z,9.278340
2022-09-09T06:37:01.457Z,9.278192
2022-09-09T06:38:01.393Z,9.278248
2022-09-09T06:39:01.388Z,9.278301
2022-09-09T06:40:01.473Z,9.278216
2022-09-09T06:41:01.343Z,9.278261
2022-09-09T06:42:01.363Z,9.278302
2022-09-09T06:43:01.327Z,9.278217
2022-09-09T06:44:01.315Z,9.278222
2022-09-09T06:45:01.276Z,9.278080
2022-09-09T06:46:01.274Z,9.277983
2022-09-09T06:47:01.364Z,9.277982
2022-09-09T06:48:01.269Z,9.278149
2022-09-09T06:49:01.233Z,9.278181
2022-09-09T06:50:01.210Z,9.278150
2022-09-09T06:51:01.173Z,9.278339
2022-09-09T06:52:01.227Z,9.278296
2022-09-09T06:53:01.155Z,9.278336
2022-09-09T06:54:01.141Z,9.278468
2022-09-09T06:55:01.129Z,9.278314
2022-09-09T06:56:01.097Z,9.278306
2022-09-09T06:57:11.129Z,9.278223
2022-09-09T06:58:02.068Z,9.278312
2022-09-09T06:59:01.052Z,9.278348
2022-09-09T07:00:01.030Z,9.278407
2022-09-09T07:01:01.083Z,9.278440
2022-09-09T07:02:01.061Z,9.278298
2022-09-09T07:03:01.006Z,9.278219
2022-09-09T07:04:00.972Z,9.278412
2022-09-09T07:05:00.946Z,9.278163
2022-09-09T07:06:00.937Z,9.277983
2022-09-09T07:07:00.957Z,9.277929
2022-09-09T07:08:00.915Z,9.278117
2022-09-09T07:09:00.881Z,9.278126
2022-09-09T07:10:00.875Z,9.278207
2022-09-09T07:11:00.854Z,9.278250
2022-09-09T07:12:00.887Z,9.278196
2022-09-09T07:13:00.844Z,9.278224
2022-09-09T07:14:00.815Z,9.278253
2022-09-09T07:15:00.786Z,9.278266
2022-09-09T07:16:00.785Z,9.278411
2022-09-09T07:17:00.781Z,9.278204
2022-09-09T07:18:00.785Z,9.278232
2022-09-09T07:19:00.728Z,9.278305
2022-09-09T07:20:00.723Z,9.278234
2022-09-09T07:21:00.691Z,9.278340
2022-09-09T07:22:00.709Z,9.278332
2022-09-09T07:23:00.656Z,9.278266
2022-09-09T07:24:00.638Z,9.278362
2022-09-09T07:25:00.679Z,9.278365
2022-09-09T07:26:00.628Z,9.278284
2022-09-09T07:27:00.634Z,9.278292
2022-09-09T07:28:00.586Z,9.278293
2022-09-09T07:29:00.586Z,9.278381
2022-09-09T07:30:00.580Z,9.278260
2022-09-09T07:31:00.626Z,9.278395
2022-09-09T07:32:00.558Z,9.278555
2022-09-09T07:33:00.492Z,9.278563
2022-09-09T07:34:00.488Z,9.278636
2022-09-09T07:35:00.549Z,9.278664
2022-09-09T07:36:00.521Z,9.278566
2022-09-09T07:37:00.462Z,9.278449
2022-09-09T07:38:00.443Z,9.278569
2022-09-09T07:39:00.424Z,9.278687
2022-09-09T07:40:00.452Z,9.278678
2022-09-09T07:41:00.365Z,9.278626
2022-09-09T07:42:00.424Z,9.278581
2022-09-09T07:43:00.330Z,9.278681
2022-09-09T07:44:00.320Z,9.278451
2022-09-09T07:45:00.322Z,9.278363
2022-09-09T07:46:00.289Z,9.278714
2022-09-09T07:47:00.288Z,9.278814
2022-09-09T07:48:00.238Z,9.278849
2022-09-09T07:49:00.222Z,9.278850
2022-09-09T07:50:00.220Z,9.278469
2022-09-09T07:51:00.186Z,9.278380
2022-09-09T07:52:00.280Z,9.278352
2022-09-09T07:53:00.157Z,9.278350
2022-09-09T07:54:00.155Z,9.278350
2022-09-09T07:55:01.437Z,9.278337
2022-09-09T07:56:01.107Z,9.278363
2022-09-09T07:57:00.405Z,9.278339
2022-09-09T07:58:01.073Z,9.278365
2022-09-09T07:59:00.074Z,9.278382
2022-09-09T08:00:00.048Z,9.278398
2022-09-09T08:01:00.071Z,9.278480
2022-09-09T08:02:00.089Z,9.278394
2022-09-09T08:03:00.023Z,9.278291
2022-09-09T08:03:59.985Z,9.278382
2022-09-09T08:05:00.957Z,9.278441
2022-09-09T08:05:59.952Z,9.278407
2022-09-09T08:06:59.948Z,9.278418
2022-09-09T08:07:59.904Z,9.278403
2022-09-09T08:08:59.897Z,9.278359
2022-09-09T08:09:59.873Z,9.278345
2022-09-09T08:10:59.901Z,9.278344
2022-09-09T08:11:59.881Z,9.278317
2022-09-09T08:13:17.236Z,9.278272
2022-09-09T08:14:02.604Z,9.278322
2022-09-09T08:15:00.783Z,9.278337
2022-09-09T08:15:59.808Z,9.278373
2022-09-09T08:16:59.794Z,9.278371
2022-09-09T08:17:59.751Z,9.278342
2022-09-09T08:18:59.751Z,9.278256
2022-09-09T08:19:59.741Z,9.278326
2022-09-09T08:20:59.696Z,9.278373
2022-09-09T08:21:59.729Z,9.278346
2022-09-09T08:22:59.685Z,9.278234
2022-09-09T08:23:59.649Z,9.278194
2022-09-09T08:24:59.650Z,9.278336
2022-09-09T08:25:59.652Z,9.278342
2022-09-09T08:26:59.647Z,9.278291
2022-09-09T08:27:59.617Z,9.278250
2022-09-09T08:28:59.578Z,9.278368
2022-09-09T08:29:59.559Z,9.278386
2022-09-09T08:30:59.592Z,9.278303
2022-09-09T08:31:59.563Z,9.278319
2022-09-09T08:32:59.508Z,9.278260
2022-09-09T08:33:59.491Z,9.278290
2022-09-09T08:35:01.139Z,9.278287
2022-09-09T08:36:00.459Z,9.278273
2022-09-09T08:36:59.479Z,9.278274
2022-09-09T08:37:59.513Z,9.278246
2022-09-09T08:38:59.430Z,9.278204
2022-09-09T08:39:59.459Z,9.278270
2022-09-09T08:40:59.376Z,9.278266
2022-09-09T08:41:59.448Z,9.278268
2022-09-09T08:42:59.370Z,9.278271
2022-09-09T08:43:59.328Z,9.278289
2022-09-09T08:44:59.404Z,9.278356
2022-09-09T08:45:59.357Z,9.278322
2022-09-09T08:46:59.322Z,9.278216
2022-09-09T08:47:59.273Z,9.278255
2022-09-09T08:48:59.278Z,9.278263
2022-09-09T08:49:59.234Z,9.278320
2022-09-09T08:50:59.237Z,9.278275
2022-09-09T08:51:59.249Z,9.278281
2022-09-09T08:52:59.193Z,9.278384
2022-09-09T08:53:59.878Z,9.278318
2022-09-09T08:55:00.177Z,9.278045
2022-09-09T08:55:59.157Z,9.278189
2022-09-09T08:56:59.156Z,9.277910
2022-09-09T08:57:59.109Z,9.277918
2022-09-09T08:58:59.102Z,9.278311
2022-09-09T08:59:59.077Z,9.278042
2022-09-09T09:00:59.807Z,9.278257
2022-09-09T09:01:59.159Z,9.278396
2022-09-09T09:02:59.047Z,9.278419
2022-09-09T09:03:59.045Z,9.278037
2022-09-09T09:04:59.049Z,9.278358
2022-09-09T09:05:58.988Z,9.278400
2022-09-09T09:06:59.066Z,9.278336
2022-09-09T09:07:58.951Z,9.278410
2022-09-09T09:08:58.950Z,9.278255
2022-09-09T09:09:58.938Z,9.278187
2022-09-09T09:10:58.905Z,9.278340
2022-09-09T09:11:58.939Z,9.278292
2022-09-09T09:12:58.880Z,9.278173
2022-09-09T09:13:58.863Z,9.278285
2022-09-09T09:14:58.849Z,9.278256
2022-09-09T09:15:58.859Z,9.278380
2022-09-09T09:16:58.834Z,9.278316
2022-09-09T09:17:58.804Z,9.278316
2022-09-09T09:18:58.793Z,9.278237
2022-09-09T09:19:58.776Z,9.278295
2022-09-09T09:20:58.760Z,9.278220
2022-09-09T09:21:58.789Z,9.278287
2022-09-09T09:22:58.730Z,9.278366
2022-09-09T09:23:58.932Z,9.278454
2022-09-09T09:24:58.710Z,9.278261
2022-09-09T09:25:58.689Z,9.278303
2022-09-09T09:26:58.742Z,9.278399
2022-09-09T09:27:58.678Z,9.278313
2022-09-09T09:28:58.633Z,9.278223
2022-09-09T09:30:21.513Z,9.278331
2022-09-09T09:31:00.656Z,9.278242
2022-09-09T09:31:58.625Z,9.278275
2022-09-09T09:32:58.561Z,9.278194
2022-09-09T09:33:58.544Z,9.278284
2022-09-09T09:34:58.550Z,9.278290
2022-09-09T09:35:58.509Z,9.278257
2022-09-09T09:36:58.540Z,9.278154
2022-09-09T09:40:59.442Z,9.278198
2022-09-09T09:41:58.447Z,9.278148
2022-09-09T09:42:58.401Z,9.278148
2022-09-09T09:43:58.400Z,9.278139
2022-09-09T09:44:58.384Z,9.278145
2022-09-09T09:46:16.716Z,9.278177
2022-09-09T09:47:00.466Z,9.278192
2022-09-09T09:48:03.016Z,9.278160
2022-09-09T09:49:00.311Z,9.278107
2022-09-09T09:49:58.297Z,9.278233
2022-09-09T09:50:58.295Z,9.278295
2022-09-09T09:51:58.315Z,9.278270
2022-09-09T09:52:58.244Z,9.278400
2022-09-09T09:53:58.237Z,9.278389
2022-09-09T09:54:58.221Z,9.278429
2022-09-09T09:55:58.207Z,9.278277
2022-09-09T09:56:58.248Z,9.278390
2022-09-09T09:57:58.252Z,9.278309
2022-09-09T09:58:58.182Z,9.278285
2022-09-09T09:59:58.142Z,9.278315
2022-09-09T10:00:58.126Z,9.278357
2022-09-09T10:01:58.254Z,9.278366
2022-09-09T10:02:58.111Z,9.278337
2022-09-09T10:03:58.086Z,9.278300
2022-09-09T10:04:58.167Z,9.278312
2022-09-09T10:05:58.059Z,9.278330
2022-09-09T10:06:58.071Z,9.278405
2022-09-09T10:07:58.012Z,9.278287
2022-09-09T10:08:58.005Z,9.278361
2022-09-09T10:09:57.987Z,9.278359
2022-09-09T10:10:57.977Z,9.278383
2022-09-09T10:11:58.001Z,9.278368
2022-09-09T10:12:57.946Z,9.278411
2022-09-09T10:13:57.951Z,9.278384
2022-09-09T10:14:57.908Z,9.278373
2022-09-09T10:15:59.451Z,9.278341
2022-09-09T10:16:57.920Z,9.278187
2022-09-09T10:17:57.871Z,9.278271
2022-09-09T10:18:57.830Z,9.278292
2022-09-09T10:19:57.841Z,9.278289
2022-09-09T10:20:57.820Z,9.278249
2022-09-09T10:21:57.813Z,9.278235
2022-09-09T10:22:57.784Z,9.278283
2022-09-09T10:23:57.841Z,9.278280
2022-09-09T10:24:57.748Z,9.278271
2022-09-09T10:25:57.745Z,9.278297
2022-09-09T10:26:57.784Z,9.278312
2022-09-09T10:27:59.824Z,9.278324
2022-09-09T10:28:58.694Z,9.278302
2022-09-09T10:29:57.688Z,9.278333
2022-09-09T10:30:57.732Z,9.278260
2022-09-09T10:31:57.679Z,9.278319
2022-09-09T10:32:57.672Z,9.278323
2022-09-09T10:33:57.589Z,9.278328
2022-09-09T10:34:57.602Z,9.278296
2022-09-09T10:35:57.597Z,9.278236
2022-09-09T10:36:57.596Z,9.278236
2022-09-09T10:37:57.551Z,9.278300
2022-09-09T10:38:57.510Z,9.278286
2022-09-09T10:39:57.534Z,9.278286
2022-09-09T10:40:57.512Z,9.278308
2022-09-09T10:41:57.498Z,9.278326
2022-09-09T10:42:57.445Z,9.278325
2022-09-09T10:44:00.284Z,9.278316
2022-09-09T10:44:58.423Z,9.278347
2022-09-09T10:45:57.502Z,9.278280
2022-09-09T10:47:01.791Z,9.278264
2022-09-09T10:47:57.374Z,9.278211
2022-09-09T10:48:57.361Z,9.278286
2022-09-09T10:49:57.348Z,9.278265
2022-09-09T10:51:00.648Z,9.278282
2022-09-09T10:51:59.339Z,9.278294
2022-09-09T10:52:57.306Z,9.278400
2022-09-09T10:53:57.277Z,9.278363
2022-09-09T10:54:57.265Z,9.278311
2022-09-09T10:55:57.255Z,9.278320
2022-09-09T10:56:57.255Z,9.278300
2022-09-09T10:57:57.201Z,9.278309
2022-09-09T10:58:57.982Z,9.278221
2022-09-09T10:59:57.185Z,9.278163
2022-09-09T11:00:58.307Z,9.278345
2022-09-09T11:01:58.190Z,9.278318
2022-09-09T11:02:57.136Z,9.278291
2022-09-09T11:03:57.119Z,9.278301
2022-09-09T11:04:57.104Z,9.278267
2022-09-09T11:05:57.122Z,9.278332
2022-09-09T11:06:57.105Z,9.278338
2022-09-09T11:07:58.056Z,9.278399
2022-09-09T11:08:58.035Z,9.278409
2022-09-09T11:09:57.154Z,9.278394
2022-09-09T11:10:57.017Z,9.278285
2022-09-09T11:11:57.090Z,9.278249
2022-09-09T11:12:56.983Z,9.278258
2022-09-09T11:13:56.982Z,9.278315
2022-09-09T11:14:56.954Z,9.278316
2022-09-09T11:15:56.924Z,9.278344
2022-09-09T11:16:56.997Z,9.278374
2022-09-09T11:17:56.888Z,9.278346
2022-09-09T11:18:56.963Z,9.278378
2022-09-09T11:19:56.870Z,9.278322
2022-09-09T11:20:56.847Z,9.278312
2022-09-09T11:21:56.857Z,9.278306
2022-09-09T11:22:56.798Z,9.278316
2022-09-09T11:23:57.792Z,9.278374
2022-09-09T11:24:56.770Z,9.278330
2022-09-09T11:25:56.782Z,9.278365
2022-09-09T11:26:56.783Z,9.278346
2022-09-09T11:27:56.753Z,9.278327
2022-09-09T11:28:57.525Z,9.278382
2022-09-09T11:29:56.729Z,9.278371
2022-09-09T11:30:57.524Z,9.278221
2022-09-09T11:31:57.700Z,9.278423
2022-09-09T11:32:56.658Z,9.278320
2022-09-09T11:33:56.644Z,9.278436
2022-09-09T11:34:56.617Z,9.278445
2022-09-09T11:35:56.587Z,9.278234
2022-09-09T11:36:56.579Z,9.278368
2022-09-09T11:37:56.592Z,9.278230
2022-09-09T11:38:56.544Z,9.278315
2022-09-09T11:39:56.541Z,9.278318
2022-09-09T11:40:56.525Z,9.278308
2022-09-09T11:41:57.491Z,9.278259
2022-09-09T11:42:56.518Z,9.278396
2022-09-09T11:43:56.452Z,9.278303
2022-09-09T11:44:56.453Z,9.278433
2022-09-09T11:46:00.210Z,9.278332
2022-09-09T11:46:56.453Z,9.278334